sensor_id;sensor_type;location;lat;lon;timestamp;temperature;humidity
54260;DHT22;40172;53.022;7.012;2023-07-20T00:01:14;14.60;99.90
54260;DHT22;40172;53.022;7.012;2023-07-20T00:03:40;14.60;99.90
54260;DHT22;40172;53.022;7.012;2023-07-20T00:06:06;14.60;99.90
54260;DHT22;40172;53.022;7.012;2023-07-20T00:08:32;14.60;99.90
54260;DHT22;40172;53.022;7.012;2023-07-20T00:10:57;14.60;99.90
54260;DHT22;40172;53.022;7.012;2023-07-20T00:13:23;14.60;99.90
54260;DHT22;40172;53.022;7.012;2023-07-20T00:15:51;14.50;99.90
54260;DHT22;40172;53.022;7.012;2023-07-20T00:18:16;14.50;99.90
54260;DHT22;40172;53.022;7.012;2023-07-20T00:20:42;14.50;99.90
54260;DHT22;40172;53.022;7.012;2023-07-20T00:23:07;14.40;99.90
54260;DHT22;40172;53.022;7.012;2023-07-20T00:25:34;14.40;99.90
54260;DHT22;40172;53.022;7.012;2023-07-20T00:27:59;14.40;99.90
54260;DHT22;40172;53.022;7.012;2023-07-20T00:30:25;14.40;99.90
54260;DHT22;40172;53.022;7.012;2023-07-20T00:32:50;14.30;99.90
54260;DHT22;40172;53.022;7.012;2023-07-20T00:35:16;14.40;99.90
54260;DHT22;40172;53.022;7.012;2023-07-20T00:37:42;14.30;99.90
54260;DHT22;40172;53.022;7.012;2023-07-20T00:40:07;14.30;99.90
54260;DHT22;40172;53.022;7.012;2023-07-20T00:42:34;14.30;99.90
54260;DHT22;40172;53.022;7.012;2023-07-20T00:44:59;14.30;99.90
54260;DHT22;40172;53.022;7.012;2023-07-20T00:47:26;14.30;99.90
54260;DHT22;40172;53.022;7.012;2023-07-20T00:49:52;14.20;99.90
54260;DHT22;40172;53.022;7.012;2023-07-20T00:52:20;14.20;99.90
54260;DHT22;40172;53.022;7.012;2023-07-20T00:54:47;14.20;99.90
54260;DHT22;40172;53.022;7.012;2023-07-20T00:57:16;14.20;99.90
54260;DHT22;40172;53.022;7.012;2023-07-20T00:59:43;14.20;99.90
54260;DHT22;40172;53.022;7.012;2023-07-20T01:02:09;14.20;99.90
54260;DHT22;40172;53.022;7.012;2023-07-20T01:04:35;14.20;99.90
54260;DHT22;40172;53.022;7.012;2023-07-20T01:07:21;14.20;99.90
54260;DHT22;40172;53.022;7.012;2023-07-20T01:09:55;14.20;99.90
54260;DHT22;40172;53.022;7.012;2023-07-20T01:12:47;14.20;99.90
54260;DHT22;40172;53.022;7.012;2023-07-20T01:15:13;14.30;99.90
54260;DHT22;40172;53.022;7.012;2023-07-20T01:17:39;14.20;99.90
54260;DHT22;40172;53.022;7.012;2023-07-20T01:20:07;14.20;99.90
54260;DHT22;40172;53.022;7.012;2023-07-20T01:28:07;14.20;99.90
54260;DHT22;40172;53.022;7.012;2023-07-20T01:30:51;14.20;99.90
54260;DHT22;40172;53.022;7.012;2023-07-20T01:33:19;14.20;99.90
54260;DHT22;40172;53.022;7.012;2023-07-20T01:35:50;14.10;99.90
54260;DHT22;40172;53.022;7.012;2023-07-20T01:38:18;14.10;99.90
54260;DHT22;40172;53.022;7.012;2023-07-20T01:40:45;14.10;99.90
54260;DHT22;40172;53.022;7.012;2023-07-20T01:43:11;14.10;99.90
54260;DHT22;40172;53.022;7.012;2023-07-20T01:45:37;14.10;99.90
54260;DHT22;40172;53.022;7.012;2023-07-20T01:48:03;14.10;99.90
54260;DHT22;40172;53.022;7.012;2023-07-20T01:50:29;14.10;99.90
54260;DHT22;40172;53.022;7.012;2023-07-20T01:52:54;14.10;99.90
54260;DHT22;40172;53.022;7.012;2023-07-20T01:55:20;14.00;99.90
54260;DHT22;40172;53.022;7.012;2023-07-20T01:57:46;14.00;99.90
54260;DHT22;40172;53.022;7.012;2023-07-20T02:00:12;13.90;99.90
54260;DHT22;40172;53.022;7.012;2023-07-20T02:02:37;13.80;99.90
54260;DHT22;40172;53.022;7.012;2023-07-20T02:05:03;13.70;99.90
54260;DHT22;40172;53.022;7.012;2023-07-20T02:07:29;13.70;99.90
54260;DHT22;40172;53.022;7.012;2023-07-20T02:09:54;13.60;99.90
54260;DHT22;40172;53.022;7.012;2023-07-20T02:12:20;13.50;99.90
54260;DHT22;40172;53.022;7.012;2023-07-20T02:14:45;13.50;99.90
54260;DHT22;40172;53.022;7.012;2023-07-20T02:17:11;13.40;99.90
54260;DHT22;40172;53.022;7.012;2023-07-20T02:19:37;13.30;99.90
54260;DHT22;40172;53.022;7.012;2023-07-20T02:22:02;13.20;99.90
54260;DHT22;40172;53.022;7.012;2023-07-20T02:24:28;13.20;99.90
54260;DHT22;40172;53.022;7.012;2023-07-20T02:26:54;13.10;99.90
54260;DHT22;40172;53.022;7.012;2023-07-20T02:29:19;13.00;99.90
54260;DHT22;40172;53.022;7.012;2023-07-20T02:31:45;13.00;99.90
54260;DHT22;40172;53.022;7.012;2023-07-20T02:34:10;12.90;99.90
54260;DHT22;40172;53.022;7.012;2023-07-20T02:36:36;12.80;99.90
54260;DHT22;40172;53.022;7.012;2023-07-20T02:39:01;12.80;99.90
54260;DHT22;40172;53.022;7.012;2023-07-20T02:41:33;12.70;99.90
54260;DHT22;40172;53.022;7.012;2023-07-20T02:43:59;12.70;99.90
54260;DHT22;40172;53.022;7.012;2023-07-20T02:46:25;12.60;99.90
54260;DHT22;40172;53.022;7.012;2023-07-20T02:48:51;12.60;99.90
54260;DHT22;40172;53.022;7.012;2023-07-20T02:51:16;12.50;99.90
54260;DHT22;40172;53.022;7.012;2023-07-20T02:53:42;12.50;99.90
54260;DHT22;40172;53.022;7.012;2023-07-20T02:56:07;12.50;99.90
54260;DHT22;40172;53.022;7.012;2023-07-20T02:58:34;12.40;99.90
54260;DHT22;40172;53.022;7.012;2023-07-20T03:01:04;12.30;99.90
54260;DHT22;40172;53.022;7.012;2023-07-20T03:03:29;12.30;99.90
54260;DHT22;40172;53.022;7.012;2023-07-20T03:05:55;12.30;99.90
54260;DHT22;40172;53.022;7.012;2023-07-20T03:08:24;12.30;99.90
54260;DHT22;40172;53.022;7.012;2023-07-20T03:10:50;12.20;99.90
54260;DHT22;40172;53.022;7.012;2023-07-20T03:13:16;12.20;99.90
54260;DHT22;40172;53.022;7.012;2023-07-20T03:15:41;12.10;99.90
54260;DHT22;40172;53.022;7.012;2023-07-20T03:18:07;12.10;99.90
54260;DHT22;40172;53.022;7.012;2023-07-20T03:20:32;12.10;99.90
54260;DHT22;40172;53.022;7.012;2023-07-20T03:22:58;12.10;99.90
54260;DHT22;40172;53.022;7.012;2023-07-20T03:25:23;12.00;99.90
54260;DHT22;40172;53.022;7.012;2023-07-20T03:27:49;12.10;99.90
54260;DHT22;40172;53.022;7.012;2023-07-20T03:30:15;12.00;99.90
54260;DHT22;40172;53.022;7.012;2023-07-20T03:32:40;12.00;99.90
54260;DHT22;40172;53.022;7.012;2023-07-20T03:35:06;12.00;99.90
54260;DHT22;40172;53.022;7.012;2023-07-20T03:37:32;12.00;99.90
54260;DHT22;40172;53.022;7.012;2023-07-20T03:40:00;11.90;99.90
54260;DHT22;40172;53.022;7.012;2023-07-20T03:42:25;11.90;99.90
54260;DHT22;40172;53.022;7.012;2023-07-20T03:44:51;11.90;99.90
54260;DHT22;40172;53.022;7.012;2023-07-20T03:47:17;11.90;99.90
54260;DHT22;40172;53.022;7.012;2023-07-20T03:49:42;11.90;99.90
54260;DHT22;40172;53.022;7.012;2023-07-20T03:52:08;11.90;99.90
54260;DHT22;40172;53.022;7.012;2023-07-20T03:54:33;11.90;99.90
54260;DHT22;40172;53.022;7.012;2023-07-20T03:56:59;11.90;99.90
54260;DHT22;40172;53.022;7.012;2023-07-20T03:59:26;11.80;99.90
54260;DHT22;40172;53.022;7.012;2023-07-20T04:01:51;11.90;99.90
54260;DHT22;40172;53.022;7.012;2023-07-20T04:04:17;11.90;99.90
54260;DHT22;40172;53.022;7.012;2023-07-20T04:06:42;11.90;99.90
54260;DHT22;40172;53.022;7.012;2023-07-20T04:09:12;11.90;99.90
54260;DHT22;40172;53.022;7.012;2023-07-20T04:11:38;12.00;99.90
54260;DHT22;40172;53.022;7.012;2023-07-20T04:14:04;12.00;99.90
54260;DHT22;40172;53.022;7.012;2023-07-20T04:16:29;12.00;99.90
54260;DHT22;40172;53.022;7.012;2023-07-20T04:18:55;12.00;99.90
54260;DHT22;40172;53.022;7.012;2023-07-20T04:21:22;12.10;99.90
54260;DHT22;40172;53.022;7.012;2023-07-20T04:23:47;12.00;99.90
54260;DHT22;40172;53.022;7.012;2023-07-20T04:26:13;12.10;99.90
54260;DHT22;40172;53.022;7.012;2023-07-20T04:28:40;12.00;99.90
54260;DHT22;40172;53.022;7.012;2023-07-20T04:31:15;12.10;99.90
54260;DHT22;40172;53.022;7.012;2023-07-20T04:33:41;12.10;99.90
54260;DHT22;40172;53.022;7.012;2023-07-20T04:36:07;12.20;99.90
54260;DHT22;40172;53.022;7.012;2023-07-20T04:38:33;12.20;99.90
54260;DHT22;40172;53.022;7.012;2023-07-20T04:40:59;12.20;99.90
54260;DHT22;40172;53.022;7.012;2023-07-20T04:43:24;12.20;99.90
54260;DHT22;40172;53.022;7.012;2023-07-20T04:45:50;12.20;99.90
54260;DHT22;40172;53.022;7.012;2023-07-20T04:48:16;12.20;99.90
54260;DHT22;40172;53.022;7.012;2023-07-20T04:50:44;12.20;99.90
54260;DHT22;40172;53.022;7.012;2023-07-20T04:53:11;12.10;99.90
54260;DHT22;40172;53.022;7.012;2023-07-20T04:55:38;12.10;99.90
54260;DHT22;40172;53.022;7.012;2023-07-20T04:58:05;12.10;99.90
54260;DHT22;40172;53.022;7.012;2023-07-20T05:00:32;12.20;99.90
54260;DHT22;40172;53.022;7.012;2023-07-20T05:02:58;12.30;99.90
54260;DHT22;40172;53.022;7.012;2023-07-20T05:05:24;12.30;99.90
54260;DHT22;40172;53.022;7.012;2023-07-20T05:07:49;12.30;99.90
54260;DHT22;40172;53.022;7.012;2023-07-20T05:10:15;12.30;99.90
54260;DHT22;40172;53.022;7.012;2023-07-20T05:12:41;12.30;99.90
54260;DHT22;40172;53.022;7.012;2023-07-20T05:15:07;12.40;99.90
54260;DHT22;40172;53.022;7.012;2023-07-20T05:17:33;12.50;99.90
54260;DHT22;40172;53.022;7.012;2023-07-20T05:19:58;12.60;99.90
54260;DHT22;40172;53.022;7.012;2023-07-20T05:22:24;12.70;99.90
54260;DHT22;40172;53.022;7.012;2023-07-20T05:24:50;12.90;99.90
54260;DHT22;40172;53.022;7.012;2023-07-20T05:27:16;13.00;99.90
54260;DHT22;40172;53.022;7.012;2023-07-20T05:29:45;13.00;99.90
54260;DHT22;40172;53.022;7.012;2023-07-20T05:32:11;13.20;99.90
54260;DHT22;40172;53.022;7.012;2023-07-20T05:34:37;13.40;99.90
54260;DHT22;40172;53.022;7.012;2023-07-20T05:37:02;13.60;99.90
54260;DHT22;40172;53.022;7.012;2023-07-20T05:39:28;13.70;99.90
54260;DHT22;40172;53.022;7.012;2023-07-20T05:41:53;13.80;99.90
54260;DHT22;40172;53.022;7.012;2023-07-20T05:44:19;14.00;99.90
54260;DHT22;40172;53.022;7.012;2023-07-20T05:46:44;14.10;99.90
54260;DHT22;40172;53.022;7.012;2023-07-20T05:49:10;14.10;99.90
54260;DHT22;40172;53.022;7.012;2023-07-20T05:51:35;14.20;99.90
54260;DHT22;40172;53.022;7.012;2023-07-20T05:54:01;14.30;99.90
54260;DHT22;40172;53.022;7.012;2023-07-20T05:56:27;14.30;99.90
54260;DHT22;40172;53.022;7.012;2023-07-20T05:58:53;14.40;99.90
54260;DHT22;40172;53.022;7.012;2023-07-20T06:01:18;14.40;99.90
54260;DHT22;40172;53.022;7.012;2023-07-20T06:03:44;14.50;99.90
54260;DHT22;40172;53.022;7.012;2023-07-20T06:06:10;14.60;99.90
54260;DHT22;40172;53.022;7.012;2023-07-20T06:08:37;14.70;99.90
54260;DHT22;40172;53.022;7.012;2023-07-20T06:11:03;14.80;99.90
54260;DHT22;40172;53.022;7.012;2023-07-20T06:13:28;14.90;99.90
54260;DHT22;40172;53.022;7.012;2023-07-20T06:15:54;15.00;99.90
54260;DHT22;40172;53.022;7.012;2023-07-20T06:18:24;15.20;99.90
54260;DHT22;40172;53.022;7.012;2023-07-20T06:20:51;15.20;99.90
54260;DHT22;40172;53.022;7.012;2023-07-20T06:23:18;15.20;99.90
54260;DHT22;40172;53.022;7.012;2023-07-20T06:25:44;15.20;99.90
54260;DHT22;40172;53.022;7.012;2023-07-20T06:28:09;15.30;99.90
54260;DHT22;40172;53.022;7.012;2023-07-20T06:30:35;15.40;99.90
54260;DHT22;40172;53.022;7.012;2023-07-20T06:33:00;15.50;99.90
54260;DHT22;40172;53.022;7.012;2023-07-20T06:35:26;15.80;99.90
54260;DHT22;40172;53.022;7.012;2023-07-20T06:37:52;15.90;99.90
54260;DHT22;40172;53.022;7.012;2023-07-20T06:40:18;16.00;99.90
54260;DHT22;40172;53.022;7.012;2023-07-20T06:42:44;16.10;99.90
54260;DHT22;40172;53.022;7.012;2023-07-20T06:45:09;16.20;99.90
54260;DHT22;40172;53.022;7.012;2023-07-20T06:47:38;16.40;99.90
54260;DHT22;40172;53.022;7.012;2023-07-20T06:50:04;16.50;99.90
54260;DHT22;40172;53.022;7.012;2023-07-20T06:52:30;16.70;99.90
54260;DHT22;40172;53.022;7.012;2023-07-20T06:54:55;16.80;99.90
54260;DHT22;40172;53.022;7.012;2023-07-20T06:57:21;16.90;99.90
54260;DHT22;40172;53.022;7.012;2023-07-20T06:59:47;17.00;99.90
54260;DHT22;40172;53.022;7.012;2023-07-20T07:02:13;17.10;99.90
54260;DHT22;40172;53.022;7.012;2023-07-20T07:04:39;17.20;99.90
54260;DHT22;40172;53.022;7.012;2023-07-20T07:07:05;17.30;99.90
54260;DHT22;40172;53.022;7.012;2023-07-20T07:09:31;17.40;99.90
54260;DHT22;40172;53.022;7.012;2023-07-20T07:11:56;17.50;99.90
54260;DHT22;40172;53.022;7.012;2023-07-20T07:14:22;17.50;99.90
54260;DHT22;40172;53.022;7.012;2023-07-20T07:16:48;17.60;99.90
54260;DHT22;40172;53.022;7.012;2023-07-20T07:19:13;17.80;99.90
54260;DHT22;40172;53.022;7.012;2023-07-20T07:21:39;17.90;99.90
54260;DHT22;40172;53.022;7.012;2023-07-20T07:24:05;18.00;99.90
54260;DHT22;40172;53.022;7.012;2023-07-20T07:26:32;18.00;99.90
54260;DHT22;40172;53.022;7.012;2023-07-20T07:28:58;18.10;99.90
54260;DHT22;40172;53.022;7.012;2023-07-20T07:31:25;18.20;99.90
54260;DHT22;40172;53.022;7.012;2023-07-20T07:33:51;18.20;99.90
54260;DHT22;40172;53.022;7.012;2023-07-20T07:36:16;18.30;99.90
54260;DHT22;40172;53.022;7.012;2023-07-20T07:38:42;18.40;99.90
54260;DHT22;40172;53.022;7.012;2023-07-20T07:41:08;18.50;99.90
54260;DHT22;40172;53.022;7.012;2023-07-20T07:43:34;18.70;99.90
54260;DHT22;40172;53.022;7.012;2023-07-20T07:46:00;18.80;99.90
54260;DHT22;40172;53.022;7.012;2023-07-20T07:48:27;18.80;99.90
54260;DHT22;40172;53.022;7.012;2023-07-20T07:50:53;18.90;99.90
54260;DHT22;40172;53.022;7.012;2023-07-20T07:53:19;18.90;99.90
54260;DHT22;40172;53.022;7.012;2023-07-20T07:55:49;18.90;99.90
54260;DHT22;40172;53.022;7.012;2023-07-20T07:58:14;19.00;99.90
54260;DHT22;40172;53.022;7.012;2023-07-20T08:00:40;19.10;99.90
54260;DHT22;40172;53.022;7.012;2023-07-20T08:03:08;19.20;99.90
54260;DHT22;40172;53.022;7.012;2023-07-20T08:05:34;19.30;99.90
54260;DHT22;40172;53.022;7.012;2023-07-20T08:08:03;19.30;99.90
54260;DHT22;40172;53.022;7.012;2023-07-20T08:10:31;19.50;99.90
54260;DHT22;40172;53.022;7.012;2023-07-20T08:12:57;19.70;99.90
54260;DHT22;40172;53.022;7.012;2023-07-20T08:15:23;19.50;99.90
54260;DHT22;40172;53.022;7.012;2023-07-20T08:17:48;19.40;99.90
54260;DHT22;40172;53.022;7.012;2023-07-20T08:20:17;19.20;99.90
54260;DHT22;40172;53.022;7.012;2023-07-20T08:22:43;19.00;99.90
54260;DHT22;40172;53.022;7.012;2023-07-20T08:25:09;19.00;99.90
54260;DHT22;40172;53.022;7.012;2023-07-20T08:27:35;19.20;99.90
54260;DHT22;40172;53.022;7.012;2023-07-20T08:30:01;19.40;99.90
54260;DHT22;40172;53.022;7.012;2023-07-20T08:32:28;19.70;99.90
54260;DHT22;40172;53.022;7.012;2023-07-20T08:34:53;19.80;99.90
54260;DHT22;40172;53.022;7.012;2023-07-20T08:37:19;19.80;99.90
54260;DHT22;40172;53.022;7.012;2023-07-20T08:39:44;19.60;99.90
54260;DHT22;40172;53.022;7.012;2023-07-20T08:42:10;19.70;99.90
54260;DHT22;40172;53.022;7.012;2023-07-20T08:44:38;19.90;99.90
54260;DHT22;40172;53.022;7.012;2023-07-20T08:47:06;19.80;99.90
54260;DHT22;40172;53.022;7.012;2023-07-20T08:49:32;19.90;99.90
54260;DHT22;40172;53.022;7.012;2023-07-20T08:51:59;19.90;99.90
54260;DHT22;40172;53.022;7.012;2023-07-20T08:54:30;19.80;99.90
54260;DHT22;40172;53.022;7.012;2023-07-20T08:56:58;19.60;99.90
54260;DHT22;40172;53.022;7.012;2023-07-20T08:59:25;19.40;99.90
54260;DHT22;40172;53.022;7.012;2023-07-20T09:01:52;19.30;99.90
54260;DHT22;40172;53.022;7.012;2023-07-20T09:04:19;19.50;99.90
54260;DHT22;40172;53.022;7.012;2023-07-20T09:06:45;19.60;99.90
54260;DHT22;40172;53.022;7.012;2023-07-20T09:09:10;19.90;99.90
54260;DHT22;40172;53.022;7.012;2023-07-20T09:11:36;20.10;99.90
54260;DHT22;40172;53.022;7.012;2023-07-20T09:14:04;20.40;99.90
54260;DHT22;40172;53.022;7.012;2023-07-20T09:16:30;20.70;99.90
54260;DHT22;40172;53.022;7.012;2023-07-20T09:18:58;20.90;99.90
54260;DHT22;40172;53.022;7.012;2023-07-20T09:21:23;20.80;99.90
54260;DHT22;40172;53.022;7.012;2023-07-20T09:23:56;20.70;99.90
54260;DHT22;40172;53.022;7.012;2023-07-20T09:26:22;20.30;99.90
54260;DHT22;40172;53.022;7.012;2023-07-20T09:28:50;19.90;99.90
54260;DHT22;40172;53.022;7.012;2023-07-20T09:31:18;19.50;99.90
54260;DHT22;40172;53.022;7.012;2023-07-20T09:33:44;19.40;99.90
54260;DHT22;40172;53.022;7.012;2023-07-20T09:36:10;19.60;99.90
54260;DHT22;40172;53.022;7.012;2023-07-20T09:38:37;19.80;99.90
54260;DHT22;40172;53.022;7.012;2023-07-20T09:41:05;20.00;99.90
54260;DHT22;40172;53.022;7.012;2023-07-20T09:43:31;20.10;99.90
54260;DHT22;40172;53.022;7.012;2023-07-20T09:45:58;20.70;99.90
54260;DHT22;40172;53.022;7.012;2023-07-20T09:48:25;20.50;99.90
54260;DHT22;40172;53.022;7.012;2023-07-20T09:50:51;21.10;99.90
54260;DHT22;40172;53.022;7.012;2023-07-20T09:53:18;20.90;99.90
54260;DHT22;40172;53.022;7.012;2023-07-20T09:55:44;21.20;99.90
54260;DHT22;40172;53.022;7.012;2023-07-20T09:58:10;21.30;99.90
54260;DHT22;40172;53.022;7.012;2023-07-20T10:00:38;21.10;99.90
54260;DHT22;40172;53.022;7.012;2023-07-20T10:03:07;20.80;99.90
54260;DHT22;40172;53.022;7.012;2023-07-20T10:05:37;20.30;99.90
54260;DHT22;40172;53.022;7.012;2023-07-20T10:08:07;20.00;99.90
54260;DHT22;40172;53.022;7.012;2023-07-20T10:10:34;19.70;99.90
54260;DHT22;40172;53.022;7.012;2023-07-20T10:13:01;19.80;99.90
54260;DHT22;40172;53.022;7.012;2023-07-20T10:15:37;19.80;99.90
54260;DHT22;40172;53.022;7.012;2023-07-20T10:18:15;19.90;99.90
54260;DHT22;40172;53.022;7.012;2023-07-20T10:20:44;19.80;99.90
54260;DHT22;40172;53.022;7.012;2023-07-20T10:23:12;19.70;99.90
54260;DHT22;40172;53.022;7.012;2023-07-20T10:25:38;19.50;99.90
54260;DHT22;40172;53.022;7.012;2023-07-20T10:28:06;19.40;99.90
54260;DHT22;40172;53.022;7.012;2023-07-20T10:30:36;19.40;99.90
54260;DHT22;40172;53.022;7.012;2023-07-20T10:33:03;19.40;99.90
54260;DHT22;40172;53.022;7.012;2023-07-20T10:35:29;19.60;99.90
54260;DHT22;40172;53.022;7.012;2023-07-20T10:38:04;19.70;99.90
54260;DHT22;40172;53.022;7.012;2023-07-20T10:43:00;19.50;99.90
54260;DHT22;40172;53.022;7.012;2023-07-20T10:45:37;19.50;99.90
54260;DHT22;40172;53.022;7.012;2023-07-20T10:48:20;19.60;99.90
54260;DHT22;40172;53.022;7.012;2023-07-20T10:51:20;20.00;99.90
54260;DHT22;40172;53.022;7.012;2023-07-20T10:53:48;20.30;99.90
54260;DHT22;40172;53.022;7.012;2023-07-20T10:56:24;20.60;99.90
54260;DHT22;40172;53.022;7.012;2023-07-20T10:58:58;21.00;99.90
54260;DHT22;40172;53.022;7.012;2023-07-20T11:01:28;21.10;99.90
54260;DHT22;40172;53.022;7.012;2023-07-20T11:03:58;21.40;99.90
54260;DHT22;40172;53.022;7.012;2023-07-20T11:11:34;22.00;98.20
54260;DHT22;40172;53.022;7.012;2023-07-20T11:14:03;22.00;99.00
54260;DHT22;40172;53.022;7.012;2023-07-20T11:18:59;22.00;99.50
54260;DHT22;40172;53.022;7.012;2023-07-20T11:21:24;22.10;99.60
54260;DHT22;40172;53.022;7.012;2023-07-20T11:23:52;22.20;97.90
54260;DHT22;40172;53.022;7.012;2023-07-20T11:26:18;22.20;96.80
54260;DHT22;40172;53.022;7.012;2023-07-20T11:28:51;21.90;96.60
54260;DHT22;40172;53.022;7.012;2023-07-20T11:31:18;21.60;96.50
54260;DHT22;40172;53.022;7.012;2023-07-20T11:33:44;21.30;96.30
54260;DHT22;40172;53.022;7.012;2023-07-20T11:36:10;21.10;96.90
54260;DHT22;40172;53.022;7.012;2023-07-20T11:38:35;21.20;96.60
54260;DHT22;40172;53.022;7.012;2023-07-20T11:41:03;20.70;96.10
54260;DHT22;40172;53.022;7.012;2023-07-20T11:43:30;20.60;97.50
54260;DHT22;40172;53.022;7.012;2023-07-20T11:45:56;20.80;97.90
54260;DHT22;40172;53.022;7.012;2023-07-20T11:48:21;21.20;98.40
54260;DHT22;40172;53.022;7.012;2023-07-20T11:50:47;21.40;96.90
54260;DHT22;40172;53.022;7.012;2023-07-20T11:53:14;21.50;97.20
54260;DHT22;40172;53.022;7.012;2023-07-20T11:55:40;21.50;96.80
54260;DHT22;40172;53.022;7.012;2023-07-20T11:58:07;21.40;96.80
54260;DHT22;40172;53.022;7.012;2023-07-20T12:00:34;21.20;96.20
54260;DHT22;40172;53.022;7.012;2023-07-20T12:03:00;21.00;96.50
54260;DHT22;40172;53.022;7.012;2023-07-20T12:05:26;20.70;97.40
54260;DHT22;40172;53.022;7.012;2023-07-20T12:07:52;20.50;98.40
54260;DHT22;40172;53.022;7.012;2023-07-20T12:10:25;20.20;97.80
54260;DHT22;40172;53.022;7.012;2023-07-20T12:12:51;20.10;98.70
54260;DHT22;40172;53.022;7.012;2023-07-20T12:15:20;20.00;99.90
54260;DHT22;40172;53.022;7.012;2023-07-20T12:17:48;20.00;99.40
54260;DHT22;40172;53.022;7.012;2023-07-20T12:20:28;20.00;98.90
54260;DHT22;40172;53.022;7.012;2023-07-20T12:23:00;20.00;99.50
54260;DHT22;40172;53.022;7.012;2023-07-20T12:25:45;20.00;99.20
54260;DHT22;40172;53.022;7.012;2023-07-20T12:28:17;20.00;98.50
54260;DHT22;40172;53.022;7.012;2023-07-20T12:30:44;20.00;97.70
54260;DHT22;40172;53.022;7.012;2023-07-20T12:33:09;19.90;97.90
54260;DHT22;40172;53.022;7.012;2023-07-20T12:35:35;19.90;97.90
54260;DHT22;40172;53.022;7.012;2023-07-20T12:38:01;19.90;97.60
54260;DHT22;40172;53.022;7.012;2023-07-20T12:40:27;20.00;97.30
54260;DHT22;40172;53.022;7.012;2023-07-20T12:42:52;20.00;97.20
54260;DHT22;40172;53.022;7.012;2023-07-20T12:45:18;20.10;97.90
54260;DHT22;40172;53.022;7.012;2023-07-20T12:47:44;20.20;98.10
54260;DHT22;40172;53.022;7.012;2023-07-20T12:50:10;20.40;98.20
54260;DHT22;40172;53.022;7.012;2023-07-20T12:52:37;20.40;97.10
54260;DHT22;40172;53.022;7.012;2023-07-20T12:55:04;20.50;97.70
54260;DHT22;40172;53.022;7.012;2023-07-20T12:57:30;20.60;98.00
54260;DHT22;40172;53.022;7.012;2023-07-20T12:59:56;20.60;96.70
54260;DHT22;40172;53.022;7.012;2023-07-20T13:02:21;20.60;97.00
54260;DHT22;40172;53.022;7.012;2023-07-20T13:04:47;20.80;98.50
54260;DHT22;40172;53.022;7.012;2023-07-20T13:07:13;20.80;96.20
54260;DHT22;40172;53.022;7.012;2023-07-20T13:09:38;20.90;97.20
54260;DHT22;40172;53.022;7.012;2023-07-20T13:12:04;20.90;95.60
54260;DHT22;40172;53.022;7.012;2023-07-20T13:14:30;20.90;96.90
54260;DHT22;40172;53.022;7.012;2023-07-20T13:16:56;20.80;95.90
54260;DHT22;40172;53.022;7.012;2023-07-20T13:19:21;20.70;96.00
54260;DHT22;40172;53.022;7.012;2023-07-20T13:21:47;20.50;95.50
54260;DHT22;40172;53.022;7.012;2023-07-20T13:24:13;20.40;96.80
54260;DHT22;40172;53.022;7.012;2023-07-20T13:26:39;20.20;97.40
54260;DHT22;40172;53.022;7.012;2023-07-20T13:29:04;20.00;99.10
54260;DHT22;40172;53.022;7.012;2023-07-20T13:31:30;19.80;99.90
54260;DHT22;40172;53.022;7.012;2023-07-20T13:33:56;19.60;99.90
54260;DHT22;40172;53.022;7.012;2023-07-20T13:36:22;19.50;99.90
54260;DHT22;40172;53.022;7.012;2023-07-20T13:38:48;19.40;99.90
54260;DHT22;40172;53.022;7.012;2023-07-20T13:41:14;19.40;99.90
54260;DHT22;40172;53.022;7.012;2023-07-20T13:43:42;19.50;99.90
54260;DHT22;40172;53.022;7.012;2023-07-20T13:46:07;19.50;99.90
54260;DHT22;40172;53.022;7.012;2023-07-20T13:48:33;19.50;99.90
54260;DHT22;40172;53.022;7.012;2023-07-20T13:50:58;19.70;99.90
54260;DHT22;40172;53.022;7.012;2023-07-20T13:53:24;19.80;99.90
54260;DHT22;40172;53.022;7.012;2023-07-20T13:55:50;20.00;99.90
54260;DHT22;40172;53.022;7.012;2023-07-20T13:58:15;20.00;99.60
54260;DHT22;40172;53.022;7.012;2023-07-20T14:00:41;20.00;99.90
54260;DHT22;40172;53.022;7.012;2023-07-20T14:03:07;19.90;99.90
54260;DHT22;40172;53.022;7.012;2023-07-20T14:05:33;19.90;99.90
54260;DHT22;40172;53.022;7.012;2023-07-20T14:07:59;19.90;99.90
54260;DHT22;40172;53.022;7.012;2023-07-20T14:10:24;20.00;99.90
54260;DHT22;40172;53.022;7.012;2023-07-20T14:12:50;19.90;99.90
54260;DHT22;40172;53.022;7.012;2023-07-20T14:15:16;20.10;99.90
54260;DHT22;40172;53.022;7.012;2023-07-20T14:17:43;19.80;99.90
54260;DHT22;40172;53.022;7.012;2023-07-20T14:20:09;19.80;99.90
54260;DHT22;40172;53.022;7.012;2023-07-20T14:22:34;19.90;99.90
54260;DHT22;40172;53.022;7.012;2023-07-20T14:25:00;19.80;99.90
54260;DHT22;40172;53.022;7.012;2023-07-20T14:27:25;19.80;99.90
54260;DHT22;40172;53.022;7.012;2023-07-20T14:29:51;19.80;99.90
54260;DHT22;40172;53.022;7.012;2023-07-20T14:32:18;19.70;99.90
54260;DHT22;40172;53.022;7.012;2023-07-20T14:34:44;19.60;99.90
54260;DHT22;40172;53.022;7.012;2023-07-20T14:37:10;19.50;99.90
54260;DHT22;40172;53.022;7.012;2023-07-20T14:39:35;19.60;99.90
54260;DHT22;40172;53.022;7.012;2023-07-20T14:42:01;19.70;99.90
54260;DHT22;40172;53.022;7.012;2023-07-20T14:44:27;19.90;99.90
54260;DHT22;40172;53.022;7.012;2023-07-20T14:46:53;20.00;99.90
54260;DHT22;40172;53.022;7.012;2023-07-20T14:49:18;20.10;99.90
54260;DHT22;40172;53.022;7.012;2023-07-20T14:51:44;20.20;99.90
54260;DHT22;40172;53.022;7.012;2023-07-20T14:54:12;20.30;99.90
54260;DHT22;40172;53.022;7.012;2023-07-20T14:56:38;20.40;99.90
54260;DHT22;40172;53.022;7.012;2023-07-20T14:59:05;20.50;99.90
54260;DHT22;40172;53.022;7.012;2023-07-20T15:01:32;20.60;99.90
54260;DHT22;40172;53.022;7.012;2023-07-20T15:03:58;20.60;99.80
54260;DHT22;40172;53.022;7.012;2023-07-20T15:06:26;20.70;99.90
54260;DHT22;40172;53.022;7.012;2023-07-20T15:08:52;20.70;99.90
54260;DHT22;40172;53.022;7.012;2023-07-20T15:11:17;20.70;99.00
54260;DHT22;40172;53.022;7.012;2023-07-20T15:13:43;20.70;99.30
54260;DHT22;40172;53.022;7.012;2023-07-20T15:16:09;20.70;99.70
54260;DHT22;40172;53.022;7.012;2023-07-20T15:18:37;20.70;99.60
54260;DHT22;40172;53.022;7.012;2023-07-20T15:21:02;20.70;99.10
54260;DHT22;40172;53.022;7.012;2023-07-20T15:23:28;20.80;99.90
54260;DHT22;40172;53.022;7.012;2023-07-20T15:25:54;20.90;99.90
54260;DHT22;40172;53.022;7.012;2023-07-20T15:28:19;21.00;99.30
54260;DHT22;40172;53.022;7.012;2023-07-20T15:30:45;21.20;98.20
54260;DHT22;40172;53.022;7.012;2023-07-20T15:33:10;21.30;98.80
54260;DHT22;40172;53.022;7.012;2023-07-20T15:35:36;21.40;99.30
54260;DHT22;40172;53.022;7.012;2023-07-20T15:38:02;21.50;97.80
54260;DHT22;40172;53.022;7.012;2023-07-20T15:40:27;21.60;96.10
54260;DHT22;40172;53.022;7.012;2023-07-20T15:42:53;21.60;95.10